createdAt,value
2019-03-27T00:02:06.711Z,64.40
2019-03-27T00:06:57.610Z,64.90
2019-03-27T00:11:48.510Z,65.50
2019-03-27T00:16:39.457Z,65.90
2019-03-27T00:21:30.375Z,66.30
2019-03-27T00:26:21.302Z,66.50
2019-03-27T00:31:12.207Z,66.30
2019-03-27T00:36:03.144Z,64.90
2019-03-27T00:40:54.040Z,64.80
2019-03-27T00:45:44.961Z,65.30
2019-03-27T00:50:35.874Z,65.70
2019-03-27T00:55:26.798Z,66.00
2019-03-27T01:00:21.482Z,66.40
2019-03-27T01:05:12.394Z,66.50
2019-03-27T01:10:03.316Z,67.00
2019-03-27T01:14:54.218Z,65.60
2019-03-27T01:19:45.122Z,64.70
2019-03-27T01:24:36.761Z,65.80
2019-03-27T01:29:28.464Z,65.90
2019-03-27T01:34:19.378Z,65.90
2019-03-27T01:39:10.294Z,66.10
2019-03-27T01:48:49.371Z,66.20
2019-03-27T01:53:40.276Z,65.90
2019-03-27T01:58:31.223Z,64.50
2019-03-27T02:03:22.883Z,65.10
2019-03-27T02:08:14.536Z,65.60
2019-03-27T02:13:05.435Z,65.60
2019-03-27T02:17:57.204Z,66.10
2019-03-27T02:22:48.123Z,66.10
2019-03-27T02:27:39.033Z,66.30
2019-03-27T02:32:29.967Z,66.70
2019-03-27T02:37:20.947Z,65.40
2019-03-27T02:42:12.602Z,65.40
2019-03-27T02:47:03.499Z,65.40
2019-03-27T02:51:55.188Z,66.20
2019-03-27T02:56:46.123Z,66.20
2019-03-27T03:01:37.025Z,66.60
2019-03-27T03:06:27.924Z,66.90
2019-03-27T03:11:18.818Z,67.10
2019-03-27T03:16:10.501Z,65.30
2019-03-27T03:21:01.398Z,65.20
2019-03-27T03:25:52.282Z,65.40
2019-03-27T03:30:44.008Z,66.30
2019-03-27T03:35:34.919Z,66.30
2019-03-27T03:40:25.813Z,66.80
2019-03-27T03:45:16.761Z,67.00
2019-03-27T03:50:07.775Z,67.10
2019-03-27T03:54:59.431Z,65.50
2019-03-27T03:59:51.096Z,65.00
2019-03-27T04:04:42.058Z,65.00
2019-03-27T04:09:32.953Z,65.60
2019-03-27T04:14:23.871Z,66.40
2019-03-27T04:19:14.781Z,66.70
2019-03-27T04:24:05.672Z,67.10
2019-03-27T04:28:57.327Z,68.00
2019-03-27T04:33:48.221Z,68.00
2019-03-27T04:38:39.146Z,66.40
2019-03-27T04:43:30.137Z,65.30
2019-03-27T04:48:21.043Z,65.60
2019-03-27T04:53:11.982Z,65.90
2019-03-27T04:58:03.011Z,66.60
2019-03-27T05:02:54.653Z,67.40
2019-03-27T05:07:46.370Z,67.70
2019-03-27T05:12:38.740Z,67.60
2019-03-27T05:17:28.190Z,67.10
2019-03-27T05:22:19.120Z,65.90
2019-03-27T05:27:10.020Z,65.90
2019-03-27T05:32:00.959Z,66.40
2019-03-27T05:36:51.854Z,67.30
2019-03-27T05:41:42.760Z,67.70
2019-03-27T05:46:33.715Z,67.80
2019-03-27T05:51:24.632Z,67.80
2019-03-27T05:56:15.645Z,67.60
2019-03-27T06:01:06.584Z,66.30
2019-03-27T06:05:57.578Z,66.10
2019-03-27T06:10:48.501Z,67.40
2019-03-27T06:15:39.401Z,67.60
2019-03-27T06:20:30.291Z,67.90
2019-03-27T06:25:21.200Z,68.30
2019-03-27T06:30:12.110Z,68.50
2019-03-27T06:35:03.089Z,68.10
2019-03-27T06:39:54.011Z,66.70
2019-03-27T06:44:44.932Z,66.80
2019-03-27T06:49:35.842Z,67.30
2019-03-27T06:54:26.736Z,67.80
2019-03-27T06:59:17.649Z,68.20
2019-03-27T07:04:10.878Z,68.50
2019-03-27T07:09:00.311Z,68.30
2019-03-27T07:13:51.222Z,68.30
2019-03-27T07:18:42.139Z,67.20
2019-03-27T07:23:33.096Z,67.60
2019-03-27T07:28:23.973Z,67.80
2019-03-27T07:33:14.889Z,68.20
2019-03-27T07:38:13.475Z,68.80
2019-03-27T07:43:05.121Z,69.00
2019-03-27T07:47:56.014Z,69.00
2019-03-27T07:52:47.036Z,68.70
2019-03-27T07:57:38.674Z,67.20
2019-03-27T08:02:30.317Z,67.60
2019-03-27T08:07:26.938Z,68.10
2019-03-27T08:12:13.190Z,68.00
2019-03-27T08:17:04.834Z,68.70
2019-03-27T08:21:55.725Z,68.70
2019-03-27T08:26:47.380Z,68.30
2019-03-27T08:31:38.283Z,68.90
2019-03-27T08:36:29.944Z,67.30
2019-03-27T08:41:20.854Z,67.30
2019-03-27T08:46:11.831Z,67.60
2019-03-27T08:51:02.741Z,67.90
2019-03-27T08:55:53.643Z,68.20
2019-03-27T09:00:45.526Z,68.40
2019-03-27T09:05:36.454Z,68.90
2019-03-27T09:10:28.135Z,67.30
2019-03-27T09:15:19.043Z,67.20
2019-03-27T09:20:09.943Z,67.30
2019-03-27T09:25:01.576Z,68.10
2019-03-27T09:29:52.498Z,68.10
2019-03-27T09:34:43.414Z,68.40
2019-03-27T09:39:34.328Z,68.40
2019-03-27T09:44:25.976Z,67.10
2019-03-27T09:49:16.869Z,67.10
2019-03-27T09:54:08.526Z,66.90
2019-03-27T09:58:59.447Z,66.90
2019-03-27T10:03:50.354Z,67.20
2019-03-27T10:08:41.991Z,67.70
2019-03-27T10:13:33.626Z,68.20
2019-03-27T10:18:24.566Z,68.10
2019-03-27T10:23:15.481Z,66.20
2019-03-27T10:28:06.385Z,65.30
2019-03-27T10:32:57.289Z,65.50
2019-03-27T10:37:48.999Z,67.10
2019-03-27T10:42:39.924Z,67.10
2019-03-27T10:47:30.929Z,67.30
2019-03-27T10:52:21.841Z,67.70
2019-03-27T10:57:12.743Z,66.30
2019-03-27T11:02:03.703Z,65.30
2019-03-27T11:06:54.619Z,65.30
2019-03-27T11:11:46.272Z,66.00
2019-03-27T11:16:37.909Z,66.90
2019-03-27T11:21:29.604Z,67.70
2019-03-27T11:26:20.500Z,67.30
2019-03-27T11:31:11.407Z,66.40
2019-03-27T11:36:02.383Z,65.50
2019-03-27T11:40:53.281Z,65.40
2019-03-27T11:45:44.260Z,65.60
2019-03-27T11:50:44.882Z,65.90
2019-03-27T11:55:26.084Z,66.20
2019-03-27T12:00:17.777Z,66.50
2019-03-27T12:05:08.690Z,66.40
2019-03-27T12:09:59.591Z,65.20
2019-03-27T12:14:50.485Z,64.70
2019-03-27T12:19:42.182Z,65.40
2019-03-27T12:24:33.099Z,65.40
2019-03-27T12:29:23.993Z,65.60
2019-03-27T12:34:14.938Z,65.50
2019-03-27T12:39:05.864Z,65.70
2019-03-27T12:43:58.266Z,64.20
2019-03-27T12:48:49.236Z,64.10
2019-03-27T12:53:40.895Z,64.80
2019-03-27T12:58:31.811Z,64.80
2019-03-27T13:03:23.817Z,65.00
2019-03-27T13:08:14.751Z,64.90
2019-03-27T13:13:05.644Z,65.40
2019-03-27T13:17:56.543Z,64.30
2019-03-27T13:22:47.507Z,64.40
2019-03-27T13:27:38.463Z,64.60
2019-03-27T13:32:29.392Z,65.10
2019-03-27T13:37:20.418Z,65.40
2019-03-27T13:42:11.369Z,65.70
2019-03-27T13:47:02.353Z,65.50
2019-03-27T13:51:54.042Z,64.80
2019-03-27T13:56:44.975Z,64.70
2019-03-27T14:01:36.008Z,65.10
2019-03-27T14:06:27.636Z,65.50
2019-03-27T14:11:18.665Z,65.50
2019-03-27T14:16:10.331Z,65.20
2019-03-27T14:21:01.259Z,65.20
2019-03-27T14:25:52.204Z,64.70
2019-03-27T14:30:46.996Z,65.10
2019-03-27T14:35:37.939Z,65.30
2019-03-27T14:40:28.834Z,65.50
2019-03-27T14:45:19.765Z,65.70
2019-03-27T14:50:10.661Z,66.00
2019-03-27T14:55:03.251Z,65.80
2019-03-27T14:59:52.631Z,64.60
2019-03-27T15:04:43.540Z,64.90
2019-03-27T15:09:34.447Z,65.10
2019-03-27T15:14:25.389Z,65.50
2019-03-27T15:19:16.283Z,65.50
2019-03-27T15:24:07.246Z,65.20
2019-03-27T15:28:58.168Z,64.10
2019-03-27T15:33:49.061Z,64.20
2019-03-27T15:38:39.979Z,64.50
2019-03-27T15:43:30.916Z,65.00
2019-03-27T15:48:21.816Z,65.20
2019-03-27T15:53:12.728Z,65.50
2019-03-27T15:58:03.644Z,64.40
2019-03-27T16:02:54.545Z,63.70
2019-03-27T16:07:45.650Z,64.00
2019-03-27T16:12:36.704Z,64.50
2019-03-27T16:17:27.535Z,64.80
2019-03-27T16:22:18.444Z,64.90
2019-03-27T16:27:09.386Z,65.40
2019-03-27T16:32:01.042Z,63.90
2019-03-27T16:36:54.206Z,64.20
2019-03-27T16:41:44.401Z,65.30
2019-03-27T16:46:35.307Z,64.80
2019-03-27T16:51:26.329Z,65.20
2019-03-27T16:56:17.984Z,65.40
2019-03-27T17:01:08.886Z,65.30
2019-03-27T17:05:59.899Z,64.20
2019-03-27T17:10:50.807Z,64.20
2019-03-27T17:15:41.720Z,64.60
2019-03-27T17:20:32.661Z,65.00
2019-03-27T17:25:23.689Z,65.30
2019-03-27T17:30:14.703Z,65.70
2019-03-27T17:35:05.719Z,64.30
2019-03-27T17:39:56.646Z,64.00
2019-03-27T17:44:47.665Z,63.90
2019-03-27T17:49:38.569Z,64.90
2019-03-27T17:54:29.485Z,65.40
2019-03-27T17:59:20.442Z,65.60
2019-03-27T18:04:12.149Z,64.80
2019-03-27T18:09:03.054Z,64.80
2019-03-27T18:13:53.976Z,64.30
2019-03-27T18:18:44.877Z,64.80
2019-03-27T18:23:46.016Z,65.20
2019-03-27T18:28:26.684Z,65.60
2019-03-27T18:33:18.381Z,66.00
2019-03-27T18:38:09.407Z,66.00
2019-03-27T18:43:00.318Z,64.80
2019-03-27T18:47:51.237Z,64.80
2019-03-27T18:52:42.139Z,65.10
2019-03-27T18:57:33.084Z,65.60
2019-03-27T19:02:24.085Z,65.90
2019-03-27T19:07:14.992Z,66.20
2019-03-27T19:12:05.896Z,66.30
2019-03-27T19:16:56.865Z,65.00
2019-03-27T19:21:47.781Z,64.70
2019-03-27T19:26:38.794Z,65.10
2019-03-27T19:31:29.709Z,65.60
2019-03-27T19:36:20.651Z,66.00
2019-03-27T19:41:11.666Z,67.30
2019-03-27T19:46:02.575Z,66.40
2019-03-27T19:50:53.546Z,65.40
2019-03-27T19:55:44.511Z,65.10
2019-03-27T20:00:35.425Z,65.50
2019-03-27T20:05:26.333Z,65.90
2019-03-27T20:10:17.223Z,67.30
2019-03-27T20:15:12.506Z,67.60
2019-03-27T20:19:59.845Z,65.40
2019-03-27T20:24:50.852Z,65.40
2019-03-27T20:29:41.755Z,65.30
2019-03-27T20:34:32.677Z,65.90
2019-03-27T20:39:23.611Z,67.50
2019-03-27T20:44:14.625Z,67.90
2019-03-27T20:49:05.629Z,68.30
2019-03-27T20:53:56.552Z,68.10
2019-03-27T20:58:47.471Z,66.10
2019-03-27T21:03:38.387Z,65.90
2019-03-27T21:08:29.299Z,66.70
2019-03-27T21:13:20.217Z,67.90
2019-03-27T21:18:11.127Z,68.60
2019-03-27T21:23:02.031Z,68.90
2019-03-27T21:27:52.938Z,69.00
2019-03-27T21:32:43.844Z,66.70
2019-03-27T21:37:35.539Z,68.00
2019-03-27T21:42:26.439Z,68.00
2019-03-27T21:47:17.383Z,68.50
2019-03-27T21:52:08.333Z,69.20
2019-03-27T21:57:00.003Z,69.30
2019-03-27T22:01:50.945Z,69.30
2019-03-27T22:06:41.890Z,66.90
2019-03-27T22:11:32.825Z,67.80
2019-03-27T22:16:24.475Z,69.00
2019-03-27T22:21:15.440Z,69.00
2019-03-27T22:26:06.353Z,69.40
2019-03-27T22:30:57.287Z,70.00
2019-03-27T22:35:48.201Z,70.00
2019-03-27T22:40:39.123Z,68.70
2019-03-27T22:45:30.040Z,68.70
2019-03-27T22:50:20.976Z,68.80
2019-03-27T22:55:11.870Z,69.30
2019-03-27T23:00:04.809Z,69.30
2019-03-27T23:04:55.790Z,70.00
2019-03-27T23:09:47.520Z,69.20
2019-03-27T23:14:38.420Z,69.70
2019-03-27T23:19:29.346Z,68.40
2019-03-27T23:24:20.253Z,68.40
2019-03-27T23:29:11.182Z,69.20
2019-03-27T23:34:02.198Z,69.60
2019-03-27T23:38:53.089Z,70.30
2019-03-27T23:43:44.068Z,70.80
2019-03-27T23:48:35.724Z,68.90
2019-03-27T23:53:27.664Z,68.90
2019-03-27T23:58:18.548Z,68.70
